createdAt,value
2022-12-12T00:03:02.601Z,38.32
2022-12-12T00:06:06.261Z,38.20
2022-12-12T00:09:09.578Z,38.04
2022-12-12T00:12:14.034Z,38.37
2022-12-12T00:15:17.157Z,38.46
2022-12-12T00:18:20.162Z,38.16
2022-12-12T00:21:25.822Z,38.68
2022-12-12T00:24:28.831Z,38.15
2022-12-12T00:27:34.663Z,38.33
2022-12-12T00:30:37.705Z,38.48
2022-12-12T00:33:40.999Z,38.27
2022-12-12T00:36:44.029Z,38.32
2022-12-12T00:39:47.495Z,38.75
2022-12-12T00:42:51.962Z,38.50
2022-12-12T00:45:55.212Z,38.61
2022-12-12T00:48:59.769Z,38.76
2022-12-12T00:52:02.945Z,38.84
2022-12-12T00:55:07.128Z,38.30
2022-12-12T00:58:11.593Z,38.58
2022-12-12T01:01:17.708Z,38.46
2022-12-12T01:04:20.840Z,38.25
2022-12-12T01:07:23.818Z,38.52
2022-12-12T01:10:26.875Z,38.28
2022-12-12T01:13:31.643Z,38.64
2022-12-12T01:16:34.963Z,38.69
2022-12-12T01:19:38.040Z,38.57
2022-12-12T01:22:41.229Z,38.40
2022-12-12T01:25:44.272Z,38.19
2022-12-12T01:28:48.741Z,38.33
2022-12-12T01:31:51.951Z,38.62
2022-12-12T01:34:54.997Z,38.19
2022-12-12T01:37:58.011Z,38.57
2022-12-12T01:41:01.111Z,38.12
2022-12-12T01:44:28.731Z,38.28
2022-12-12T01:47:31.735Z,37.92
2022-12-12T01:50:34.859Z,38.19
2022-12-12T01:53:38.610Z,37.94
2022-12-12T01:56:44.350Z,38.31
2022-12-12T01:59:49.064Z,38.46
2022-12-12T02:02:53.829Z,38.10
2022-12-12T02:06:01.254Z,38.07
2022-12-12T02:09:08.555Z,37.84
2022-12-12T02:12:15.057Z,38.17
2022-12-12T02:15:19.587Z,38.36
2022-12-12T02:18:29.917Z,38.13
2022-12-12T02:21:42.974Z,38.02
2022-12-12T02:25:18.847Z,38.12
2022-12-12T02:28:42.025Z,37.87
2022-12-12T02:31:53.156Z,37.92
2022-12-12T02:35:05.665Z,38.38
2022-12-12T02:38:19.728Z,37.89
2022-12-12T02:41:29.565Z,37.99
2022-12-12T02:44:41.155Z,37.91
2022-12-12T02:47:49.365Z,37.96
2022-12-12T02:50:55.514Z,37.68
2022-12-12T02:54:00.255Z,37.93
2022-12-12T02:57:03.826Z,38.02
2022-12-12T03:00:10.056Z,38.27
2022-12-12T03:03:47.096Z,38.27
2022-12-12T03:07:19.495Z,38.01
2022-12-12T03:10:35.900Z,38.21
2022-12-12T03:13:47.134Z,37.91
2022-12-12T03:16:56.491Z,38.11
2022-12-12T03:20:08.119Z,37.60
2022-12-12T03:23:16.561Z,38.05
2022-12-12T03:26:26.619Z,37.48
2022-12-12T03:29:33.492Z,37.64
2022-12-12T03:32:58.005Z,38.18
2022-12-12T03:36:08.411Z,37.74
2022-12-12T03:39:17.866Z,38.06
2022-12-12T03:42:25.027Z,37.98
2022-12-12T03:45:33.818Z,38.10
2022-12-12T03:48:41.991Z,37.82
2022-12-12T03:51:51.203Z,37.90
2022-12-12T03:55:00.147Z,37.85
2022-12-12T03:58:10.260Z,37.91
2022-12-12T04:01:15.333Z,37.58
2022-12-12T04:04:25.158Z,37.69
2022-12-12T04:07:34.544Z,37.90
2022-12-12T04:11:16.904Z,38.09
2022-12-12T04:14:35.064Z,37.75
2022-12-12T04:17:43.470Z,37.75
2022-12-12T04:21:14.965Z,38.32
2022-12-12T04:24:26.397Z,38.92
2022-12-12T04:27:36.074Z,38.11
2022-12-12T04:30:39.446Z,37.63
2022-12-12T04:33:49.939Z,37.44
2022-12-12T04:36:54.390Z,37.50
2022-12-12T04:40:01.375Z,36.92
2022-12-12T04:43:07.740Z,37.12
2022-12-12T04:46:15.044Z,37.24
2022-12-12T04:49:21.691Z,37.15
2022-12-12T04:52:27.056Z,37.82
2022-12-12T04:55:34.421Z,38.27
2022-12-12T04:58:38.626Z,38.25
2022-12-12T05:01:53.748Z,38.35
2022-12-12T05:05:00.427Z,38.22
2022-12-12T05:08:07.936Z,38.37
2022-12-12T05:11:13.272Z,38.84
2022-12-12T05:14:17.465Z,39.00
2022-12-12T05:17:27.479Z,38.65
2022-12-12T05:20:30.563Z,39.13
2022-12-12T05:23:35.012Z,38.93
2022-12-12T05:26:39.821Z,38.70
2022-12-12T05:29:42.860Z,38.74
2022-12-12T05:32:46.021Z,38.74
2022-12-12T05:35:49.120Z,38.87
2022-12-12T05:38:52.203Z,38.54
2022-12-12T05:41:56.620Z,38.65
2022-12-12T05:44:59.671Z,38.59
2022-12-12T05:48:02.754Z,38.31
2022-12-12T05:51:06.441Z,38.23
2022-12-12T05:54:09.505Z,38.14
2022-12-12T05:57:13.961Z,38.14
2022-12-12T06:00:17.495Z,38.08
2022-12-12T06:03:20.678Z,37.67
2022-12-12T06:06:24.120Z,37.70
2022-12-12T06:09:27.091Z,37.77
2022-12-12T06:12:31.464Z,37.26
2022-12-12T06:15:34.639Z,37.65
2022-12-12T06:18:38.067Z,37.48
2022-12-12T06:21:41.264Z,37.07
2022-12-12T06:24:44.405Z,37.42
2022-12-12T06:27:48.816Z,37.21
2022-12-12T06:30:51.883Z,37.39
2022-12-12T06:33:54.891Z,37.35
2022-12-12T06:36:57.930Z,36.99
2022-12-12T06:40:00.933Z,37.27
2022-12-12T06:43:05.273Z,37.16
2022-12-12T06:46:11.780Z,36.66
2022-12-12T06:49:14.819Z,37.11
2022-12-12T06:52:17.809Z,36.75
2022-12-12T06:55:20.852Z,36.98
2022-12-12T06:58:25.280Z,36.74
2022-12-12T07:01:28.550Z,37.09
2022-12-12T07:04:31.743Z,36.69
2022-12-12T07:07:34.848Z,37.07
2022-12-12T07:10:38.197Z,36.80
2022-12-12T07:13:43.058Z,36.63
2022-12-12T07:16:46.051Z,36.49
2022-12-12T07:19:49.096Z,36.69
2022-12-12T07:22:52.212Z,36.47
2022-12-12T07:25:55.273Z,36.27
2022-12-12T07:28:59.771Z,36.71
2022-12-12T07:32:02.829Z,36.64
2022-12-12T07:35:06.436Z,36.44
2022-12-12T07:38:10.438Z,36.71
2022-12-12T07:41:15.076Z,36.64
2022-12-12T07:44:19.513Z,36.60
2022-12-12T07:47:22.482Z,36.28
2022-12-12T07:50:25.572Z,36.44
2022-12-12T07:53:29.053Z,36.70
2022-12-12T07:56:32.096Z,36.47
2022-12-12T07:59:36.498Z,36.88
2022-12-12T08:02:39.534Z,36.35
2022-12-12T08:05:42.822Z,36.49
2022-12-12T08:08:46.601Z,36.71
2022-12-12T08:11:49.660Z,36.49
2022-12-12T08:14:54.172Z,36.83
2022-12-12T08:17:57.196Z,36.75
2022-12-12T08:21:00.194Z,36.64
2022-12-12T08:24:04.153Z,36.99
2022-12-12T08:27:10.823Z,36.67
2022-12-12T08:30:19.916Z,36.71
2022-12-12T08:33:22.907Z,36.57
2022-12-12T08:36:30.157Z,36.92
2022-12-12T08:39:33.206Z,36.83
2022-12-12T08:42:36.223Z,36.39
2022-12-12T08:45:40.905Z,36.60
2022-12-12T08:48:44.343Z,36.68
2022-12-12T08:51:47.412Z,36.47
2022-12-12T08:54:50.507Z,36.83
2022-12-12T08:57:53.481Z,36.22
2022-12-12T09:00:57.875Z,36.64
2022-12-12T09:04:00.853Z,36.58
2022-12-12T09:07:08.415Z,36.70
2022-12-12T09:10:11.840Z,36.77
2022-12-12T09:13:14.791Z,36.63
2022-12-12T09:16:19.462Z,36.40
2022-12-12T09:19:22.570Z,36.31
2022-12-12T09:22:25.653Z,36.15
2022-12-12T09:25:28.869Z,36.68
2022-12-12T09:28:31.990Z,36.66
2022-12-12T09:31:36.504Z,36.56
2022-12-12T09:34:39.790Z,36.20
2022-12-12T09:37:42.795Z,36.37
2022-12-12T09:40:53.231Z,36.52
2022-12-12T09:43:58.950Z,36.26
2022-12-12T09:47:08.988Z,36.67
2022-12-12T09:50:19.836Z,36.42
2022-12-12T09:53:26.620Z,36.59
2022-12-12T09:56:36.548Z,36.82
2022-12-12T09:59:45.370Z,36.31
2022-12-12T10:03:03.684Z,36.15
2022-12-12T10:09:59.242Z,36.24
2022-12-12T10:13:06.279Z,36.28
2022-12-12T10:16:12.282Z,36.17
2022-12-12T10:19:23.315Z,36.23
2022-12-12T10:22:36.095Z,36.84
2022-12-12T10:25:46.163Z,36.52
2022-12-12T10:28:53.330Z,36.34
2022-12-12T10:32:08.295Z,36.72
2022-12-12T10:35:26.449Z,36.80
2022-12-12T10:38:50.210Z,36.34
2022-12-12T10:42:02.219Z,36.39
2022-12-12T10:45:31.711Z,36.70
2022-12-12T10:48:35.220Z,36.22
2022-12-12T10:51:39.767Z,36.59
2022-12-12T10:54:47.694Z,36.64
2022-12-12T10:58:03.793Z,36.50
2022-12-12T11:01:13.568Z,36.11
2022-12-12T11:04:16.872Z,36.72
2022-12-12T11:07:23.651Z,36.78
2022-12-12T11:10:33.938Z,36.74
2022-12-12T11:13:46.358Z,36.45
2022-12-12T11:16:49.514Z,36.39
2022-12-12T11:19:54.253Z,36.61
2022-12-12T11:22:59.218Z,36.80
2022-12-12T11:26:05.100Z,36.90
2022-12-12T11:29:08.507Z,37.06
2022-12-12T11:32:15.736Z,36.87
2022-12-12T11:35:25.072Z,36.50
2022-12-12T11:38:31.687Z,36.94
2022-12-12T11:41:58.774Z,36.80
2022-12-12T11:45:06.035Z,36.46
2022-12-12T11:48:33.834Z,36.62
2022-12-12T11:51:39.782Z,36.54
2022-12-12T11:54:44.116Z,36.81
2022-12-12T11:58:12.168Z,36.76
2022-12-12T12:01:22.544Z,36.69
2022-12-12T12:04:52.863Z,36.98
2022-12-12T12:08:09.819Z,36.74
2022-12-12T12:11:27.683Z,36.96
2022-12-12T12:14:46.953Z,36.71
2022-12-12T12:18:06.026Z,37.37
2022-12-12T12:21:31.123Z,37.02
2022-12-12T12:24:55.085Z,36.47
2022-12-12T12:28:15.616Z,36.88
2022-12-12T12:31:25.756Z,36.83
2022-12-12T12:34:40.280Z,36.92
2022-12-12T12:37:54.273Z,36.98
2022-12-12T12:41:27.065Z,36.56
2022-12-12T12:44:42.386Z,36.59
2022-12-12T12:47:52.227Z,36.77
2022-12-12T12:51:04.651Z,37.10
2022-12-12T12:54:14.554Z,36.83
2022-12-12T12:57:22.932Z,36.81
2022-12-12T13:00:31.497Z,36.58
2022-12-12T13:03:39.161Z,36.82
2022-12-12T13:06:47.794Z,36.70
2022-12-12T13:09:59.556Z,37.10
2022-12-12T13:13:08.666Z,36.91
2022-12-12T13:16:17.014Z,37.13
2022-12-12T13:19:30.672Z,37.13
2022-12-12T13:22:44.770Z,36.78
2022-12-12T13:25:56.677Z,37.04
2022-12-12T13:29:05.260Z,36.79
2022-12-12T13:33:01.432Z,36.70
2022-12-12T13:36:12.629Z,36.83
2022-12-12T13:39:26.707Z,36.68
2022-12-12T13:42:53.195Z,36.83
2022-12-12T13:45:56.459Z,37.19
2022-12-12T13:49:11.939Z,36.79
2022-12-12T13:52:30.832Z,36.96
2022-12-12T13:55:34.077Z,36.85
2022-12-12T13:58:37.120Z,37.22
2022-12-12T14:01:41.295Z,36.71
2022-12-12T14:04:47.956Z,37.13
2022-12-12T14:07:53.285Z,36.78
2022-12-12T14:10:59.991Z,36.78
2022-12-12T14:14:09.076Z,37.03
2022-12-12T14:17:22.126Z,37.17
2022-12-12T14:20:31.298Z,37.18
2022-12-12T14:23:36.274Z,36.97
2022-12-12T14:26:51.629Z,36.65
2022-12-12T14:29:54.650Z,37.00
2022-12-12T14:33:10.101Z,36.79
2022-12-12T14:36:31.848Z,37.18
2022-12-12T14:39:58.317Z,37.43
2022-12-12T14:43:20.660Z,36.88
2022-12-12T14:46:25.535Z,37.21
2022-12-12T14:49:28.637Z,37.13
2022-12-12T14:52:33.123Z,37.20
2022-12-12T14:55:36.153Z,36.85
2022-12-12T14:58:42.663Z,36.60
2022-12-12T15:01:48.326Z,37.20
2022-12-12T15:04:55.954Z,36.83
2022-12-12T15:08:02.626Z,36.75
2022-12-12T15:11:05.955Z,36.91
2022-12-12T15:14:19.267Z,37.21
2022-12-12T15:17:26.726Z,37.18
2022-12-12T15:20:32.201Z,36.65
2022-12-12T15:23:36.657Z,36.85
2022-12-12T15:26:39.752Z,36.87
2022-12-12T15:29:43.992Z,36.78
2022-12-12T15:32:49.003Z,36.90
2022-12-12T15:35:59.565Z,37.33
2022-12-12T15:39:15.728Z,36.68
2022-12-12T15:42:18.795Z,36.77
2022-12-12T15:45:29.386Z,36.91
2022-12-12T15:48:32.362Z,37.10
2022-12-12T15:51:35.475Z,37.03
2022-12-12T15:54:47.304Z,36.79
2022-12-12T15:57:53.280Z,36.80
2022-12-12T16:01:04.432Z,37.14
2022-12-12T16:04:23.726Z,37.15
2022-12-12T16:07:26.759Z,36.95
2022-12-12T16:10:31.227Z,36.70
2022-12-12T16:13:39.334Z,36.97
2022-12-12T16:16:48.120Z,36.62
2022-12-12T16:19:56.343Z,36.71
2022-12-12T16:23:11.746Z,36.69
2022-12-12T16:26:16.203Z,36.87
2022-12-12T16:29:19.287Z,36.77
2022-12-12T16:32:23.651Z,36.99
2022-12-12T16:35:26.793Z,37.06
2022-12-12T16:38:30.527Z,36.78
2022-12-12T16:41:35.276Z,36.97
2022-12-12T16:44:38.328Z,37.34
2022-12-12T16:47:42.155Z,37.94
2022-12-12T16:50:45.716Z,39.71
2022-12-12T16:53:48.986Z,40.28
2022-12-12T16:56:54.152Z,40.55
2022-12-12T16:59:57.116Z,43.33
2022-12-12T17:03:00.225Z,43.90
2022-12-12T17:06:03.452Z,45.93
2022-12-12T17:09:06.489Z,47.11
2022-12-12T17:12:12.940Z,48.28
2022-12-12T17:15:21.222Z,49.28
2022-12-12T17:18:24.804Z,49.63
2022-12-12T17:21:27.864Z,50.49
2022-12-12T17:24:31.200Z,50.51
2022-12-12T17:27:35.800Z,51.20
2022-12-12T17:30:40.519Z,50.93
2022-12-12T17:33:50.609Z,49.64
2022-12-12T17:36:54.232Z,47.15
2022-12-12T17:39:57.428Z,46.04
2022-12-12T17:43:03.971Z,44.55
2022-12-12T17:46:09.710Z,43.87
2022-12-12T17:49:12.760Z,41.80
2022-12-12T17:52:16.098Z,40.56
2022-12-12T17:55:55.058Z,40.33
2022-12-12T17:58:45.426Z,40.50
2022-12-12T18:01:53.942Z,40.60
2022-12-12T18:04:57.122Z,40.70
2022-12-12T18:08:01.526Z,40.96
2022-12-12T18:11:07.668Z,40.92
2022-12-12T18:14:15.463Z,40.40
2022-12-12T18:17:18.543Z,40.75
2022-12-12T18:20:22.797Z,40.93
2022-12-12T18:23:28.398Z,40.34
2022-12-12T18:26:31.459Z,41.08
2022-12-12T18:29:35.940Z,41.08
2022-12-12T18:32:38.986Z,40.98
2022-12-12T18:35:41.949Z,40.65
2022-12-12T18:38:47.774Z,40.41
2022-12-12T18:41:52.136Z,40.59
2022-12-12T18:44:56.612Z,40.54
2022-12-12T18:47:59.567Z,40.38
2022-12-12T18:51:06.532Z,40.40
2022-12-12T18:54:14.608Z,40.79
2022-12-12T18:57:18.299Z,40.58
2022-12-12T19:00:23.094Z,40.98
2022-12-12T19:03:26.135Z,40.44
2022-12-12T19:06:33.904Z,40.98
2022-12-12T19:09:36.977Z,40.88
2022-12-12T19:12:40.136Z,40.99
2022-12-12T19:15:44.603Z,40.62
2022-12-12T19:18:48.147Z,40.77
2022-12-12T19:21:52.387Z,40.68
2022-12-12T19:24:55.428Z,40.56
2022-12-12T19:27:59.787Z,40.37
2022-12-12T19:31:07.897Z,40.32
2022-12-12T19:34:14.057Z,40.56
2022-12-12T19:37:17.132Z,40.09
2022-12-12T19:40:20.385Z,40.45
2022-12-12T19:43:23.396Z,40.16
2022-12-12T19:46:31.022Z,40.24
2022-12-12T19:49:34.184Z,40.12
2022-12-12T19:52:37.298Z,40.27
2022-12-12T19:55:47.675Z,40.34
2022-12-12T19:58:51.119Z,40.09
2022-12-12T20:01:55.751Z,39.88
2022-12-12T20:04:58.889Z,40.18
2022-12-12T20:08:02.020Z,40.20
2022-12-12T20:11:06.380Z,40.28
2022-12-12T20:14:12.788Z,39.79
2022-12-12T20:17:17.250Z,39.73
2022-12-12T20:20:20.253Z,39.94
2022-12-12T20:23:23.306Z,40.08
2022-12-12T20:26:28.349Z,39.89
2022-12-12T20:29:32.077Z,39.93
2022-12-12T20:32:36.556Z,39.77
2022-12-12T20:35:39.591Z,39.14
2022-12-12T20:38:43.034Z,39.30
2022-12-12T20:41:46.414Z,39.12
2022-12-12T20:44:50.459Z,39.03
2022-12-12T20:47:54.859Z,39.19
2022-12-12T20:50:59.324Z,38.61
2022-12-12T20:54:04.779Z,38.79
2022-12-12T20:57:07.808Z,38.26
2022-12-12T21:00:12.860Z,38.84
2022-12-12T21:03:17.600Z,38.83
2022-12-12T21:06:23.319Z,38.39
2022-12-12T21:09:27.004Z,38.48
2022-12-12T21:12:30.357Z,38.46
2022-12-12T21:15:33.476Z,38.24
2022-12-12T21:18:38.503Z,37.95
2022-12-12T21:21:43.259Z,38.23
2022-12-12T21:24:46.339Z,38.08
2022-12-12T21:27:49.361Z,37.95
2022-12-12T21:30:52.494Z,37.75
2022-12-12T21:33:57.319Z,37.83
2022-12-12T21:37:00.337Z,38.02
2022-12-12T21:40:03.420Z,37.69
2022-12-12T21:43:06.438Z,37.70
2022-12-12T21:46:12.393Z,37.38
2022-12-12T21:49:30.649Z,37.75
2022-12-12T21:52:33.636Z,37.36
2022-12-12T21:55:38.157Z,37.31
2022-12-12T21:58:43.142Z,37.48
2022-12-12T22:01:46.190Z,37.28
2022-12-12T22:04:50.605Z,37.15
2022-12-12T22:07:53.709Z,36.73
2022-12-12T22:11:00.242Z,37.01
2022-12-12T22:14:03.531Z,36.90
2022-12-12T22:17:07.001Z,37.18
2022-12-12T22:20:12.869Z,36.70
2022-12-12T22:23:16.538Z,36.39
2022-12-12T22:26:22.848Z,36.75
2022-12-12T22:29:25.835Z,36.97
2022-12-12T22:32:29.723Z,36.98
2022-12-12T22:35:34.095Z,36.56
2022-12-12T22:38:38.612Z,36.59
2022-12-12T22:41:41.760Z,36.45
2022-12-12T22:44:44.780Z,36.18
2022-12-12T22:47:47.824Z,36.27
2022-12-12T22:50:52.193Z,36.60
2022-12-12T22:53:56.993Z,36.13
2022-12-12T22:57:00.082Z,36.14
2022-12-12T23:00:03.140Z,36.45
2022-12-12T23:03:06.175Z,35.97
2022-12-12T23:06:13.821Z,36.07
2022-12-12T23:09:22.704Z,36.08
2022-12-12T23:12:25.783Z,36.23
2022-12-12T23:15:29.013Z,35.70
2022-12-12T23:18:32.117Z,36.25
2022-12-12T23:21:38.150Z,36.19
2022-12-12T23:24:41.249Z,35.79
2022-12-12T23:27:44.411Z,35.75
2022-12-12T23:30:47.460Z,36.23
2022-12-12T23:33:53.575Z,36.29
2022-12-12T23:36:58.227Z,35.94
2022-12-12T23:40:02.292Z,35.51
2022-12-12T23:43:05.320Z,35.69
2022-12-12T23:46:28.229Z,35.61
2022-12-12T23:49:31.536Z,35.64
2022-12-12T23:52:35.915Z,35.72
2022-12-12T23:55:38.919Z,35.28
2022-12-12T23:58:41.991Z,35.76
